createdAt,value
2023-01-28T00:01:37.201Z,15.23
2023-01-28T00:04:05.355Z,14.13
2023-01-28T00:06:33.413Z,13.00
2023-01-28T00:09:01.444Z,15.00
2023-01-28T00:11:30.548Z,11.40
2023-01-28T00:13:59.186Z,15.67
2023-01-28T00:16:31.559Z,12.80
2023-01-28T00:18:59.706Z,13.73
2023-01-28T00:21:27.833Z,15.63
2023-01-28T00:23:57.266Z,13.37
2023-01-28T00:26:27.119Z,17.43
2023-01-28T00:28:55.645Z,17.37
2023-01-28T00:31:26.252Z,20.00
2023-01-28T00:33:57.321Z,13.60
2023-01-28T00:36:27.820Z,12.77
2023-01-28T00:38:57.450Z,9.48
2023-01-28T00:41:28.831Z,14.30
2023-01-28T00:43:59.944Z,12.53
2023-01-28T00:46:28.015Z,12.53
2023-01-28T00:48:57.726Z,13.03
2023-01-28T00:51:25.803Z,15.37
2023-01-28T00:53:54.092Z,13.63
2023-01-28T00:56:22.226Z,11.73
2023-01-28T00:58:50.633Z,18.23
2023-01-28T01:01:22.526Z,18.70
2023-01-28T01:03:57.589Z,10.23
2023-01-28T01:06:27.242Z,16.60
2023-01-28T01:08:55.296Z,9.73
2023-01-28T01:11:23.390Z,10.57
2023-01-28T01:13:54.889Z,11.37
2023-01-28T01:16:24.372Z,10.63
2023-01-28T01:18:53.455Z,13.07
2023-01-28T01:21:23.788Z,12.33
2023-01-28T01:23:53.930Z,11.23
2023-01-28T01:26:23.202Z,15.53
2023-01-28T01:28:52.468Z,8.43
2023-01-28T01:31:22.562Z,14.37
2023-01-28T01:33:52.500Z,13.27
2023-01-28T01:36:22.110Z,12.57
2023-01-28T01:38:56.342Z,13.33
2023-01-28T01:41:28.489Z,9.87
2023-01-28T01:43:58.549Z,12.20
2023-01-28T01:46:34.241Z,10.47
2023-01-28T01:49:09.405Z,10.03
2023-01-28T01:51:38.422Z,18.53
2023-01-28T01:54:08.911Z,9.23
2023-01-28T01:56:42.100Z,10.23
2023-01-28T01:59:13.339Z,7.90
2023-01-28T02:01:42.640Z,16.30
2023-01-28T02:04:17.005Z,8.53
2023-01-28T02:06:48.309Z,8.53
2023-01-28T02:09:30.509Z,8.87
2023-01-28T02:12:02.669Z,8.63
2023-01-28T02:14:34.128Z,5.47
2023-01-28T02:17:03.236Z,9.23
2023-01-28T02:19:38.930Z,7.20
2023-01-28T02:22:38.107Z,6.33
2023-01-28T02:25:33.179Z,8.40
2023-01-28T02:28:19.091Z,7.80
2023-01-28T02:30:55.266Z,9.37
2023-01-28T02:33:30.876Z,6.37
2023-01-28T02:36:04.450Z,10.20
2023-01-28T02:38:41.197Z,7.70
2023-01-28T02:41:15.097Z,9.67
2023-01-28T02:43:46.961Z,6.47
2023-01-28T02:46:51.815Z,5.03
2023-01-28T02:49:23.653Z,4.13
2023-01-28T02:52:03.927Z,5.03
2023-01-28T02:54:39.015Z,4.63
2023-01-28T02:57:17.617Z,6.27
2023-01-28T02:59:53.933Z,5.50
2023-01-28T03:02:30.763Z,4.73
2023-01-28T03:05:06.535Z,6.83
2023-01-28T03:07:37.361Z,12.40
2023-01-28T03:10:08.539Z,9.57
2023-01-28T03:12:58.736Z,7.30
2023-01-28T03:15:50.919Z,5.40
2023-01-28T03:18:41.681Z,9.90
2023-01-28T03:21:31.304Z,6.88
2023-01-28T03:24:24.541Z,12.75
2023-01-28T03:27:17.106Z,3.67
2023-01-28T03:30:10.593Z,4.03
2023-01-28T03:32:59.647Z,4.50
2023-01-28T03:35:49.806Z,7.13
2023-01-28T03:38:21.068Z,5.33
2023-01-28T03:40:53.158Z,3.70
2023-01-28T03:43:21.515Z,4.47
2023-01-28T03:45:51.526Z,4.30
2023-01-28T03:48:21.897Z,2.13
2023-01-28T03:50:51.059Z,3.23
2023-01-28T03:53:20.482Z,3.57
2023-01-28T03:55:52.592Z,3.63
2023-01-28T03:58:21.043Z,7.03
2023-01-28T04:00:49.457Z,3.83
2023-01-28T04:03:20.945Z,3.53
2023-01-28T04:06:02.234Z,3.70
2023-01-28T04:08:53.167Z,3.67
2023-01-28T04:11:47.870Z,2.80
2023-01-28T04:14:21.820Z,3.63
2023-01-28T04:16:55.371Z,2.13
2023-01-28T04:19:51.224Z,7.80
2023-01-28T04:22:21.584Z,5.23
2023-01-28T04:25:16.042Z,8.63
2023-01-28T04:27:44.884Z,4.23
2023-01-28T04:30:20.037Z,7.50
2023-01-28T04:33:05.574Z,5.63
2023-01-28T04:35:41.419Z,3.60
2023-01-28T04:38:43.138Z,5.38
2023-01-28T04:41:42.758Z,5.63
2023-01-28T04:44:22.921Z,6.40
2023-01-28T04:47:17.385Z,5.87
2023-01-28T04:50:10.464Z,4.60
2023-01-28T04:52:44.517Z,4.97
2023-01-28T04:55:28.366Z,3.57
2023-01-28T04:57:56.416Z,4.87
2023-01-28T05:00:24.591Z,5.47
2023-01-28T05:02:53.308Z,4.73
2023-01-28T05:05:22.427Z,6.50
2023-01-28T05:07:59.865Z,7.27
2023-01-28T05:10:29.423Z,5.07
2023-01-28T05:12:57.521Z,9.17
2023-01-28T05:15:25.553Z,6.43
2023-01-28T05:17:57.130Z,8.10
2023-01-28T05:20:51.397Z,7.27
2023-01-28T05:23:19.469Z,3.37
2023-01-28T05:25:53.744Z,6.70
2023-01-28T05:28:21.907Z,7.37
2023-01-28T05:30:50.027Z,6.63
2023-01-28T05:33:19.334Z,3.80
2023-01-28T05:35:49.626Z,7.90
2023-01-28T05:38:18.443Z,6.70
2023-01-28T05:40:46.504Z,3.30
2023-01-28T05:43:16.096Z,5.90
2023-01-28T05:46:03.136Z,5.93
2023-01-28T05:48:57.628Z,5.90
2023-01-28T05:51:44.499Z,6.67
2023-01-28T05:54:16.005Z,5.97
2023-01-28T05:56:44.378Z,5.87
2023-01-28T05:59:13.974Z,9.17
2023-01-28T06:01:44.059Z,8.00
2023-01-28T06:04:12.186Z,7.40
2023-01-28T06:06:40.812Z,4.93
2023-01-28T06:09:08.883Z,7.23
2023-01-28T06:11:36.860Z,5.27
2023-01-28T06:14:06.411Z,8.63
2023-01-28T06:16:53.410Z,7.57
2023-01-28T06:19:27.643Z,6.03
2023-01-28T06:23:11.068Z,8.30
2023-01-28T06:25:39.926Z,6.23
2023-01-28T06:28:11.778Z,7.07
2023-01-28T06:30:39.853Z,4.83
2023-01-28T06:33:09.275Z,9.60
2023-01-28T06:35:37.777Z,7.27
2023-01-28T06:38:05.828Z,6.60
2023-01-28T06:40:35.543Z,10.63
2023-01-28T06:43:03.581Z,9.43
2023-01-28T06:45:32.079Z,6.37
2023-01-28T06:48:00.248Z,7.43
2023-01-28T06:50:29.558Z,9.00
2023-01-28T06:52:57.588Z,4.20
2023-01-28T06:55:25.649Z,7.07
2023-01-28T06:57:53.667Z,6.87
2023-01-28T07:01:12.314Z,9.03
2023-01-28T07:03:40.339Z,6.57
2023-01-28T07:06:09.849Z,7.03
2023-01-28T07:08:39.827Z,9.70
2023-01-28T07:11:08.229Z,7.97
2023-01-28T07:13:36.244Z,6.00
2023-01-28T07:16:08.880Z,10.70
2023-01-28T07:18:36.984Z,4.53
2023-01-28T07:21:05.330Z,7.53
2023-01-28T07:23:34.694Z,8.37
2023-01-28T07:26:03.547Z,8.77
2023-01-28T07:28:31.638Z,6.57
2023-01-28T07:31:02.224Z,7.95
2023-01-28T07:33:30.334Z,9.63
2023-01-28T07:35:58.461Z,7.57
2023-01-28T07:38:26.469Z,8.93
2023-01-28T07:40:55.916Z,9.40
2023-01-28T07:43:23.957Z,8.73
2023-01-28T07:45:52.037Z,7.53
2023-01-28T07:48:20.060Z,6.13
2023-01-28T07:50:49.645Z,11.50
2023-01-28T07:53:17.797Z,8.43
2023-01-28T07:55:45.886Z,7.87
2023-01-28T07:58:15.300Z,6.93
2023-01-28T08:00:43.527Z,6.80
2023-01-28T08:03:15.764Z,10.70
2023-01-28T08:05:46.793Z,8.53
2023-01-28T08:10:45.038Z,15.07
2023-01-28T08:13:14.151Z,9.97
2023-01-28T08:15:43.810Z,8.10
2023-01-28T08:18:14.120Z,12.07
2023-01-28T08:20:43.621Z,9.93
2023-01-28T08:23:15.303Z,10.50
2023-01-28T08:25:43.375Z,7.00
2023-01-28T08:28:12.392Z,10.63
2023-01-28T08:30:40.986Z,14.50
2023-01-28T08:33:13.322Z,12.83
2023-01-28T08:35:42.396Z,10.30
2023-01-28T08:38:12.973Z,14.00
2023-01-28T08:40:40.964Z,12.10
2023-01-28T08:43:09.366Z,12.83
2023-01-28T08:45:37.417Z,13.80
2023-01-28T08:48:07.322Z,7.87
2023-01-28T08:50:38.587Z,10.93
2023-01-28T08:53:10.172Z,19.80
2023-01-28T08:55:38.411Z,8.30
2023-01-28T08:58:08.508Z,7.87
2023-01-28T09:00:37.163Z,9.27
2023-01-28T09:03:06.464Z,12.43
2023-01-28T09:05:39.654Z,11.60
2023-01-28T09:08:09.888Z,10.45
2023-01-28T09:10:38.591Z,10.57
2023-01-28T09:13:07.545Z,12.43
2023-01-28T09:15:35.667Z,8.93
2023-01-28T09:18:03.751Z,12.03
2023-01-28T09:20:33.473Z,11.60
2023-01-28T09:23:03.116Z,9.17
2023-01-28T09:25:31.434Z,10.93
2023-01-28T09:27:59.812Z,12.17
2023-01-28T09:30:27.944Z,9.73
2023-01-28T09:32:58.143Z,8.57
2023-01-28T09:35:26.546Z,8.10
2023-01-28T09:37:58.198Z,13.17
2023-01-28T09:40:33.372Z,8.47
2023-01-28T09:43:15.971Z,10.50
2023-01-28T09:45:48.217Z,8.53
2023-01-28T09:48:19.098Z,11.63
2023-01-28T09:50:51.400Z,11.63
2023-01-28T09:53:22.794Z,10.27
2023-01-28T09:55:56.929Z,15.67
2023-01-28T09:58:24.987Z,10.67
2023-01-28T10:01:00.689Z,17.60
2023-01-28T10:03:46.460Z,13.33
2023-01-28T10:06:27.007Z,14.70
2023-01-28T10:09:09.324Z,11.55
2023-01-28T10:12:52.429Z,13.33
2023-01-28T10:15:58.851Z,13.27
2023-01-28T10:18:35.666Z,11.77
2023-01-28T10:21:09.416Z,14.63
2023-01-28T10:23:54.041Z,17.23
2023-01-28T10:26:25.131Z,12.73
2023-01-28T10:28:57.859Z,26.23
2023-01-28T10:31:33.071Z,13.07
2023-01-28T10:34:04.540Z,12.83
2023-01-28T10:36:32.721Z,15.83
2023-01-28T10:39:00.996Z,16.37
2023-01-28T10:41:29.265Z,17.80
2023-01-28T10:43:58.395Z,16.13
2023-01-28T10:46:31.034Z,14.77
2023-01-28T10:49:08.232Z,16.00
2023-01-28T10:51:38.218Z,15.67
2023-01-28T10:54:20.377Z,20.53
2023-01-28T10:56:50.227Z,20.50
2023-01-28T10:59:24.075Z,18.77
2023-01-28T11:01:54.345Z,23.63
2023-01-28T11:04:27.017Z,16.42
2023-01-28T11:07:00.959Z,18.27
2023-01-28T11:09:31.423Z,23.80
2023-01-28T11:12:00.561Z,20.88
2023-01-28T11:14:28.849Z,18.40
2023-01-28T11:17:24.710Z,21.17
2023-01-28T11:19:56.227Z,19.40
2023-01-28T11:22:32.913Z,21.73
2023-01-28T11:25:02.368Z,22.90
2023-01-28T11:27:32.776Z,18.23
2023-01-28T11:30:04.754Z,20.25
2023-01-28T11:32:33.159Z,17.07
2023-01-28T11:35:02.550Z,13.03
2023-01-28T11:37:31.607Z,17.83
2023-01-28T11:40:05.293Z,17.63
2023-01-28T11:42:33.473Z,17.53
2023-01-28T11:45:01.701Z,17.10
2023-01-28T11:48:20.621Z,15.03
2023-01-28T11:50:58.324Z,19.90
2023-01-28T11:53:42.759Z,13.60
2023-01-28T11:56:36.610Z,19.00
2023-01-28T11:59:21.175Z,17.47
2023-01-28T12:01:59.407Z,12.43
2023-01-28T12:04:46.396Z,13.23
2023-01-28T12:07:34.855Z,12.67
2023-01-28T12:10:10.791Z,17.20
2023-01-28T12:12:56.969Z,18.30
2023-01-28T12:15:49.910Z,14.80
2023-01-28T12:18:32.708Z,14.10
2023-01-28T12:21:08.470Z,14.57
2023-01-28T12:23:52.134Z,15.40
2023-01-28T12:26:27.979Z,11.10
2023-01-28T12:29:12.377Z,21.73
2023-01-28T12:31:54.517Z,18.07
2023-01-28T12:34:42.336Z,14.37
2023-01-28T12:37:20.500Z,18.27
2023-01-28T12:40:05.814Z,20.00
2023-01-28T12:42:38.234Z,16.43
2023-01-28T12:45:17.471Z,15.60
2023-01-28T12:47:52.718Z,27.93
2023-01-28T12:50:26.276Z,16.50
2023-01-28T12:52:58.339Z,17.80
2023-01-28T12:55:39.865Z,15.00
2023-01-28T12:58:18.363Z,14.87
2023-01-28T13:00:51.316Z,16.70
2023-01-28T13:03:35.345Z,14.10
2023-01-28T13:06:09.792Z,22.37
2023-01-28T13:08:38.308Z,26.07
2023-01-28T13:11:15.433Z,17.90
2023-01-28T13:13:45.751Z,17.60
2023-01-28T13:16:14.760Z,13.85
2023-01-28T13:18:46.346Z,17.53
2023-01-28T13:21:17.697Z,18.00
2023-01-28T13:23:47.191Z,11.90
2023-01-28T13:26:43.388Z,15.27
2023-01-28T13:29:21.965Z,18.47
2023-01-28T13:31:54.095Z,14.03
2023-01-28T13:34:33.534Z,16.73
2023-01-28T13:37:06.038Z,13.90
2023-01-28T13:39:36.633Z,12.37
2023-01-28T13:42:24.203Z,17.98
2023-01-28T13:44:53.703Z,15.40
2023-01-28T13:47:26.251Z,20.87
2023-01-28T13:49:59.945Z,19.00
2023-01-28T13:52:31.823Z,18.57
2023-01-28T13:55:06.445Z,15.47
2023-01-28T13:58:20.654Z,17.17
2023-01-28T14:01:29.070Z,16.77
2023-01-28T14:04:33.618Z,17.30
2023-01-28T14:07:43.800Z,17.17
2023-01-28T14:10:34.758Z,19.50
2023-01-28T14:13:28.745Z,20.40
2023-01-28T14:16:05.615Z,38.47
2023-01-28T14:18:39.824Z,12.27
2023-01-28T14:21:13.525Z,12.27
2023-01-28T14:23:47.072Z,16.27
2023-01-28T14:26:32.838Z,14.77
2023-01-28T14:29:13.627Z,14.00
2023-01-28T14:31:43.375Z,17.13
2023-01-28T14:34:25.228Z,11.10
2023-01-28T14:36:57.256Z,13.63
2023-01-28T14:39:28.520Z,12.07
2023-01-28T14:42:00.618Z,9.80
2023-01-28T14:44:33.123Z,15.80
2023-01-28T14:47:42.569Z,17.57
2023-01-28T14:50:32.162Z,10.07
2023-01-28T14:53:22.963Z,14.20
2023-01-28T14:55:56.585Z,16.13
2023-01-28T14:58:29.163Z,17.63
2023-01-28T15:00:59.703Z,20.47
2023-01-28T15:03:29.317Z,17.45
2023-01-28T15:06:14.225Z,14.53
2023-01-28T15:08:45.311Z,16.90
2023-01-28T15:13:46.296Z,18.10
2023-01-28T15:16:19.441Z,17.13
2023-01-28T15:18:49.146Z,22.97
2023-01-28T15:21:22.370Z,15.10
2023-01-28T15:23:53.750Z,18.33
2023-01-28T15:26:23.953Z,17.30
2023-01-28T15:28:53.245Z,20.93
2023-01-28T15:31:23.023Z,19.70
2023-01-28T15:33:58.117Z,20.13
2023-01-28T15:36:27.878Z,20.57
2023-01-28T15:38:56.329Z,17.57
2023-01-28T15:41:28.641Z,18.10
2023-01-28T15:43:56.951Z,17.73
2023-01-28T15:46:25.365Z,18.93
2023-01-28T15:49:00.359Z,16.40
2023-01-28T15:51:32.090Z,19.93
2023-01-28T15:54:03.218Z,20.43
2023-01-28T15:59:10.386Z,31.10
2023-01-28T16:01:38.504Z,23.47
2023-01-28T16:04:09.688Z,17.17
2023-01-28T16:06:42.774Z,16.70
2023-01-28T16:09:24.065Z,16.57
2023-01-28T16:11:52.417Z,17.67
2023-01-28T16:14:25.767Z,22.07
2023-01-28T16:16:55.760Z,20.13
2023-01-28T16:19:34.928Z,23.33
2023-01-28T16:22:04.884Z,16.20
2023-01-28T16:24:36.410Z,14.80
2023-01-28T16:27:06.926Z,17.73
2023-01-28T16:29:35.119Z,15.82
2023-01-28T16:32:03.881Z,14.57
2023-01-28T16:34:32.330Z,16.13
2023-01-28T16:37:01.772Z,17.33
2023-01-28T16:39:31.547Z,17.03
2023-01-28T16:41:59.773Z,17.27
2023-01-28T16:44:27.993Z,21.10
2023-01-28T16:46:56.299Z,41.97
2023-01-28T16:49:24.703Z,27.97
2023-01-28T16:51:53.663Z,19.23
2023-01-28T16:54:22.037Z,18.60
2023-01-28T16:56:52.045Z,21.07
2023-01-28T16:59:20.117Z,16.80
2023-01-28T17:01:49.019Z,15.37
2023-01-28T17:04:17.423Z,15.67
2023-01-28T17:06:46.720Z,18.73
2023-01-28T17:09:15.923Z,20.37
2023-01-28T17:11:44.088Z,19.63
2023-01-28T17:14:13.655Z,19.57
2023-01-28T17:16:41.830Z,20.17
2023-01-28T17:19:09.961Z,24.17
2023-01-28T17:21:38.232Z,20.27
2023-01-28T17:24:07.327Z,18.03
2023-01-28T17:26:37.005Z,16.67
2023-01-28T17:29:06.163Z,21.17
2023-01-28T17:31:36.636Z,12.83
2023-01-28T17:34:07.052Z,11.88
2023-01-28T17:36:35.259Z,12.20
2023-01-28T17:39:03.491Z,16.17
2023-01-28T17:41:31.712Z,16.43
2023-01-28T17:44:00.048Z,13.70
2023-01-28T17:46:28.183Z,17.03
2023-01-28T17:48:57.671Z,14.43
2023-01-28T17:51:26.082Z,11.07
2023-01-28T17:53:54.831Z,14.03
2023-01-28T17:56:25.791Z,14.30
2023-01-28T17:58:55.571Z,14.48
2023-01-28T18:01:25.556Z,13.03
2023-01-28T18:03:53.968Z,15.87
2023-01-28T18:06:23.552Z,12.13
2023-01-28T18:08:52.299Z,13.07
2023-01-28T18:11:21.453Z,15.47
2023-01-28T18:13:49.621Z,19.57
2023-01-28T18:16:19.669Z,19.07
2023-01-28T18:18:48.614Z,15.07
2023-01-28T18:22:13.703Z,17.03
2023-01-28T18:25:33.291Z,13.73
2023-01-28T18:28:01.461Z,14.23
2023-01-28T18:30:30.370Z,15.23
2023-01-28T18:32:58.417Z,20.33
2023-01-28T18:35:26.579Z,16.13
2023-01-28T18:38:02.333Z,20.47
2023-01-28T18:40:30.516Z,15.90
2023-01-28T18:42:58.696Z,16.10
2023-01-28T18:45:26.914Z,17.80
2023-01-28T18:47:55.133Z,15.97
2023-01-28T18:50:23.210Z,19.13
2023-01-28T18:52:54.262Z,17.10
2023-01-28T18:55:23.760Z,17.30
2023-01-28T18:57:51.895Z,16.63
2023-01-28T19:00:20.478Z,16.37
2023-01-28T19:02:48.604Z,20.47
2023-01-28T19:05:18.247Z,20.43
2023-01-28T19:07:46.236Z,25.40
2023-01-28T19:10:14.331Z,24.83
2023-01-28T19:12:43.705Z,19.90
2023-01-28T19:15:12.091Z,23.20
2023-01-28T19:17:40.186Z,17.17
2023-01-28T19:20:09.432Z,14.73
2023-01-28T19:23:31.220Z,15.67
2023-01-28T19:26:03.751Z,18.90
2023-01-28T19:28:34.358Z,14.30
2023-01-28T19:31:03.381Z,14.13
2023-01-28T19:33:31.635Z,15.37
2023-01-28T19:36:01.424Z,14.57
2023-01-28T19:38:29.790Z,13.70
2023-01-28T19:41:04.572Z,16.80
2023-01-28T19:43:34.947Z,19.90
2023-01-28T19:46:05.994Z,13.30
2023-01-28T19:51:07.611Z,14.03
2023-01-28T19:53:36.587Z,13.67
2023-01-28T19:56:07.437Z,10.23
2023-01-28T19:58:38.628Z,10.57
2023-01-28T20:01:07.989Z,12.53
2023-01-28T20:03:36.486Z,12.77
2023-01-28T20:06:06.810Z,14.23
2023-01-28T20:08:35.012Z,12.98
2023-01-28T20:11:05.142Z,15.00
2023-01-28T20:13:34.436Z,12.45
2023-01-28T20:16:08.311Z,10.57
2023-01-28T20:18:37.100Z,11.33
2023-01-28T20:21:08.237Z,14.17
2023-01-28T20:24:09.094Z,14.10
2023-01-28T20:26:38.728Z,11.47
2023-01-28T20:29:09.546Z,10.40
2023-01-28T20:31:40.350Z,12.48
2023-01-28T20:34:09.673Z,10.75
2023-01-28T20:36:37.973Z,11.03
2023-01-28T20:39:05.993Z,10.17
2023-01-28T20:41:34.296Z,12.60
2023-01-28T20:44:02.462Z,10.90
2023-01-28T20:46:32.634Z,13.97
2023-01-28T20:49:06.195Z,11.07
2023-01-28T20:51:36.116Z,14.03
2023-01-28T20:54:05.065Z,11.63
2023-01-28T20:56:33.178Z,15.70
2023-01-28T20:59:03.562Z,11.13
2023-01-28T21:01:34.852Z,11.60
2023-01-28T21:04:05.771Z,13.13
2023-01-28T21:06:33.955Z,11.77
2023-01-28T21:09:02.230Z,11.60
2023-01-28T21:11:30.856Z,9.47
2023-01-28T21:13:59.276Z,12.80
2023-01-28T21:16:28.533Z,12.40
2023-01-28T21:18:56.662Z,17.63
2023-01-28T21:21:43.854Z,13.80
2023-01-28T21:24:12.644Z,11.60
2023-01-28T21:26:41.124Z,14.63
2023-01-28T21:29:09.256Z,10.40
2023-01-28T21:31:37.286Z,13.77
2023-01-28T21:34:05.458Z,15.23
2023-01-28T21:36:34.512Z,11.80
2023-01-28T21:39:05.900Z,14.03
2023-01-28T21:41:34.126Z,11.10
2023-01-28T21:44:02.298Z,14.87
2023-01-28T21:46:31.890Z,14.80
2023-01-28T21:49:01.754Z,20.07
2023-01-28T21:51:38.042Z,18.43
2023-01-28T21:54:10.699Z,17.63
2023-01-28T21:56:38.876Z,16.33
2023-01-28T21:59:24.370Z,18.37
2023-01-28T22:01:52.610Z,17.70
2023-01-28T22:04:20.818Z,17.97
2023-01-28T22:06:49.430Z,19.27
2023-01-28T22:09:20.416Z,23.17
2023-01-28T22:11:48.567Z,15.95
2023-01-28T22:15:18.888Z,18.33
2023-01-28T22:17:46.950Z,17.80
2023-01-28T22:20:15.515Z,19.73
2023-01-28T22:22:43.638Z,14.50
2023-01-28T22:25:13.051Z,17.73
2023-01-28T22:27:41.064Z,13.33
2023-01-28T22:30:10.614Z,16.93
2023-01-28T22:32:38.699Z,15.17
2023-01-28T22:39:16.640Z,13.87
2023-01-28T22:41:46.946Z,12.23
2023-01-28T22:44:39.806Z,11.98
2023-01-28T22:47:07.862Z,17.67
2023-01-28T22:49:35.865Z,13.80
2023-01-28T22:52:03.845Z,12.73
2023-01-28T22:54:32.041Z,9.63
2023-01-28T22:57:01.476Z,11.17
2023-01-28T22:59:29.805Z,13.80
2023-01-28T23:01:58.397Z,13.97
2023-01-28T23:04:26.444Z,14.47
2023-01-28T23:06:54.491Z,11.60
2023-01-28T23:09:22.463Z,10.70
2023-01-28T23:11:50.511Z,11.63
2023-01-28T23:14:37.295Z,12.10
2023-01-28T23:17:31.117Z,11.33
2023-01-28T23:20:17.172Z,11.07
2023-01-28T23:23:11.523Z,11.90
2023-01-28T23:25:39.565Z,16.13
2023-01-28T23:28:07.767Z,17.40
2023-01-28T23:30:37.321Z,20.10
2023-01-28T23:33:55.610Z,19.70
2023-01-28T23:36:23.822Z,20.17
2023-01-28T23:38:51.862Z,23.97
2023-01-28T23:41:19.902Z,25.43
2023-01-28T23:43:48.212Z,24.97
2023-01-28T23:46:19.444Z,24.03
2023-01-28T23:48:51.718Z,21.43
2023-01-28T23:51:20.011Z,22.50
2023-01-28T23:53:50.904Z,22.52
2023-01-28T23:56:19.332Z,26.07
2023-01-28T23:58:47.348Z,22.57
